M I D A S
Marine Information and Data Acquisition System
Tripno 802 of the Zeeleeuw from 2004-11-05 12:23:18 to 2004-11-05 15:29:03
Back to CruiseResearch ActivitiesStationsMapUnderway DataData graphs

EquipmentUnitsComment
TimeDGPSUTC
LatitudeDGPSDM.mWGS84
LongitudeDGPSDM.mWGS84
TemperatureSBE03/SBE38deg celciusITS90
ConductivitySBE21S/mITS90
SalinitySBE21 Practical Salinity Units
ChlorophylAChelsea fluorimeterg/lCalibrated in Aceton
Missing or incorrect values are displayed as -999
Sea surface data collected by the RV Zeeleeuw from 2004-11-05 08:18:08 to 2004-11-05 15:31:42
Time Latitude Longitude Temperature Conductivity Salinity ChlorophylA
2004-11-05 08:19:14 51°13.605 2°56.071 18.218454 0.011416 0.065626 -0.814958
2004-11-05 08:20:14 51°13.633 2°55.979 18.222143 0.011416 0.065625 -0.848668
2004-11-05 08:21:14 51°13.674 2°55.875 18.195691 0.011416 0.065625 -0.848668
2004-11-05 08:22:14 51°13.707 2°55.764 18.215036 0.011416 0.065625 -0.814958
2004-11-05 08:23:12 51°13.716 2°55.754 18.170309 0.011416 0.065624 -0.814958
2004-11-05 08:24:14 51°13.716 2°55.758 18.239412 0.011416 0.06562 -0.814958
2004-11-05 08:25:14 51°13.719 2°55.767 18.258656 0.011416 0.065622 -0.814958
2004-11-05 08:26:14 51°13.718 2°55.772 18.39631 0.011416 0.065627 -0.848668
2004-11-05 08:27:23 51°13.793 2°55.672 12.07717 3.483749 29.104093 2.555982
2004-11-05 08:28:32 51°13.937 2°55.558 11.807976 3.358619 28.675561 2.151469
2004-11-05 08:29:32 51°14.076 2°55.457 11.783317 3.35346 28.772823 1.949212
2004-11-05 08:30:32 51°14.224 2°55.32 11.747051 3.416343 29.363808 1.848084
2004-11-05 08:31:38 51°14.352 2°55.071 11.771526 3.444153 29.665373 1.814375
2004-11-05 08:32:38 51°14.471 2°54.827 11.743398 3.528641 30.437652 1.746956
2004-11-05 08:33:44 51°14.575 2°54.498 11.806201 3.720623 32.290974 2.555982
2004-11-05 08:34:44 51°14.657 2°54.173 11.96539 3.812836 33.096112 2.016631
2004-11-05 08:35:44 51°14.756 2°53.859 12.016633 3.856259 33.436395 1.713247
2004-11-05 08:36:52 51°14.873 2°53.508 12.058799 3.892623 33.743886 2.050341
2004-11-05 08:38:06 51°15.001 2°53.128 12.03074 3.900844 33.827639 1.915503
2004-11-05 08:39:06 51°15.099 2°52.82 11.965832 3.889777 33.756942 2.050341
2004-11-05 08:40:06 51°15.198 2°52.505 11.929467 3.869857 33.621757 2.151469
2004-11-05 08:41:06 51°15.28 2°52.178 11.944822 3.873651 33.66705 2.050341
2004-11-05 08:42:08 51°15.333 2°51.823 11.970703 3.880819 33.717244 1.848084
2004-11-05 08:43:08 51°15.364 2°51.473 12.016338 3.886405 33.747816 1.746956
2004-11-05 08:44:08 51°15.4 2°51.126 12.037768 3.884612 33.695597 1.5447
2004-11-05 08:45:08 51°15.436 2°50.778 12.057128 3.892517 33.745001 1.578409
2004-11-05 08:46:06 51°15.475 2°50.443 12.081542 3.89842 33.791376 1.342443
2004-11-05 08:47:06 51°15.519 2°50.098 12.09647 3.90643 33.854544 1.308734
2004-11-05 08:48:08 51°15.564 2°49.744 12.127741 3.907273 33.840598 1.409862
2004-11-05 08:49:09 51°15.61 2°49.391 12.17901 3.914335 33.874593 1.578409
2004-11-05 08:50:11 51°15.658 2°49.035 12.237394 3.939422 34.058833 2.050341
2004-11-05 08:51:10 51°15.7 2°48.699 12.279277 3.943743 34.062635 2.6234
2004-11-05 08:52:11 51°15.745 2°48.352 12.320449 3.952914 34.112407 3.061623
2004-11-05 08:53:31 51°15.803 2°47.896 12.30317 3.931198 33.877208 3.971777
2004-11-05 08:54:30 51°15.849 2°47.555 12.323679 3.9546 34.125789 3.499845
2004-11-05 08:55:29 51°15.893 2°47.211 12.396901 3.956075 34.087206 3.836939
2004-11-05 08:56:30 51°15.938 2°46.855 12.351079 3.95597 34.071244 3.870648
2004-11-05 08:57:29 51°15.981 2°46.513 12.34423 3.934044 33.894641 3.567264
2004-11-05 08:58:29 51°16.026 2°46.168 12.366976 3.946377 34.003235 3.398717
2004-11-05 08:59:29 51°16.069 2°45.831 12.37661 3.945639 33.976972 3.23017
2004-11-05 09:00:30 51°16.162 2°45.516 12.409708 3.95365 34.028355 3.567264
2004-11-05 09:01:29 51°16.29 2°45.239 12.437464 3.949223 33.969546 3.904358
2004-11-05 09:02:30 51°16.423 2°44.954 12.439467 3.963032 34.092842 3.76952
2004-11-05 09:03:29 51°16.553 2°44.68 12.418749 3.964824 34.114311 3.870648
2004-11-05 09:04:30 51°16.69 2°44.407 12.408681 3.960291 34.085016 3.466136
2004-11-05 09:05:32 51°16.838 2°44.131 12.379202 3.951753 34.021497 3.129042
2004-11-05 09:06:46 51°17 2°43.8 12.379739 3.946166 33.978486 3.19646
2004-11-05 09:07:52 51°17.072 2°43.451 12.363405 3.946377 33.993289 2.994204
2004-11-05 09:08:52 51°17.091 2°43.103 12.356558 3.928773 33.815019 2.589691
2004-11-05 09:10:16 51°17.124 2°42.62 12.381255 3.942161 33.946395 3.027913
2004-11-05 09:11:20 51°17.145 2°42.237 12.401447 3.940263 33.909757 3.027913
2004-11-05 09:12:28 51°17.155 2°41.844 12.426422 3.943847 33.927874 2.960494
2004-11-05 09:13:32 51°17.172 2°41.472 12.486499 3.95112 33.964378 2.893076
2004-11-05 09:14:32 51°17.199 2°41.121 12.556085 3.959868 33.981024 3.365007
2004-11-05 09:15:32 51°17.219 2°40.771 12.600648 3.967984 34.00854 3.668392
2004-11-05 09:16:56 51°17.24 2°40.282 12.624284 3.97589 34.043873 4.443708
2004-11-05 09:18:10 51°17.262 2°39.847 12.620288 3.984639 34.126774 4.679674
2004-11-05 09:19:24 51°17.283 2°39.426 12.675814 3.980317 34.064991 5.320153
2004-11-05 09:20:44 51°17.305 2°39.125 12.7076 3.994548 34.161305 5.724665
2004-11-05 09:21:56 51°17.345 2°39.024 12.725458 3.991701 34.110852 6.061759
2004-11-05 09:22:56 51°17.355 2°39.031 12.739322 3.996129 34.143196 5.994341
2004-11-05 09:23:55 51°17.35 2°39.044 12.744429 3.995601 34.131116 6.095469
2004-11-05 09:25:07 51°17.34 2°39.056 12.75863 4.005932 34.224673 5.994341
2004-11-05 09:26:08 51°17.329 2°39.062 12.755469 4.001399 34.169451 5.859503
2004-11-05 09:27:06 51°17.319 2°39.07 12.741365 4.002032 34.186775 6.095469
2004-11-05 09:28:06 51°17.31 2°39.08 12.729155 4.000556 34.184005 5.724665
2004-11-05 09:29:08 51°17.302 2°39.09 12.727306 3.982214 34.016877 5.758375
2004-11-05 09:30:28 51°17.293 2°39.102 12.728474 3.984322 34.036974 5.589828
2004-11-05 09:31:28 51°17.286 2°39.109 12.725214 3.99771 34.163923 5.690956
2004-11-05 09:32:28 51°17.277 2°39.116 12.714997 3.996761 34.16123 5.286443
2004-11-05 09:33:26 51°17.268 2°39.119 12.710374 3.992439 34.126356 5.623537
2004-11-05 09:34:28 51°17.26 2°39.126 12.707989 3.995918 34.160955 5.320153
2004-11-05 09:35:28 51°17.267 2°39.15 12.719424 3.998026 34.179658 5.219024
2004-11-05 09:36:38 51°17.309 2°39.214 12.709546 3.99402 34.140028 5.353862
2004-11-05 09:37:46 51°17.358 2°39.292 12.711444 3.993704 34.137011 5.421281
2004-11-05 09:38:46 51°17.406 2°39.369 12.706578 3.99518 34.156741 5.556118
2004-11-05 09:39:58 51°17.477 2°39.446 12.703025 3.994337 34.15152 5.117896
2004-11-05 09:40:58 51°17.532 2°39.482 12.698742 3.994759 34.161196 5.219024
2004-11-05 09:41:58 51°17.543 2°39.498 12.694216 3.994864 34.160082 5.657247
2004-11-05 09:42:56 51°17.537 2°39.506 12.687936 3.996024 34.171856 5.320153
2004-11-05 09:44:02 51°17.53 2°39.514 12.683507 3.992229 34.149063 5.623537
2004-11-05 09:45:28 51°17.519 2°39.521 12.677518 3.993178 34.163777 5.556118
2004-11-05 09:46:26 51°17.51 2°39.524 12.666466 3.992756 34.163995 5.050477
2004-11-05 09:47:28 51°17.501 2°39.528 12.662278 3.989277 34.137139 4.645965
2004-11-05 09:48:30 51°17.493 2°39.531 12.667391 3.992334 34.171288 4.780802
2004-11-05 09:49:42 51°17.484 2°39.533 12.660573 3.993283 34.178935 4.645965
2004-11-05 09:50:46 51°17.476 2°39.536 12.654048 3.985482 34.109378 4.679674
2004-11-05 09:51:48 51°17.47 2°39.539 12.659843 3.990437 34.160239 4.747093
2004-11-05 09:52:58 51°17.463 2°39.543 12.654924 3.991069 34.165574 4.511127
2004-11-05 09:54:02 51°17.458 2°39.545 12.652879 3.990542 34.162662 4.679674
2004-11-05 09:55:10 51°17.452 2°39.545 12.646206 3.988012 34.142029 4.477418
2004-11-05 09:56:10 51°17.446 2°39.548 12.645621 3.989488 34.161084 4.511127
2004-11-05 09:57:12 51°17.446 2°39.557 12.63773 3.987907 34.148097 4.241452
2004-11-05 09:58:22 51°17.496 2°39.587 12.634758 3.988856 34.159288 4.207742
2004-11-05 09:59:28 51°17.564 2°39.633 12.644014 3.989488 34.165332 4.477418
2004-11-05 10:00:28 51°17.627 2°39.69 12.637681 3.990226 34.170968 4.409999
2004-11-05 10:01:32 51°17.706 2°39.77 12.633833 3.985693 34.134019 4.275161
2004-11-05 10:02:32 51°17.794 2°39.857 12.639825 3.982953 34.105705 4.174033
2004-11-05 10:03:58 51°17.917 2°40.014 12.653317 3.989594 34.155013 3.971777
2004-11-05 10:05:48 51°18.038 2°40.224 12.679758 3.991913 34.155942 4.241452
2004-11-05 10:06:54 51°18.1 2°40.321 12.685259 3.99265 34.15733 4.106614
2004-11-05 10:07:56 51°18.156 2°40.412 12.679807 3.993494 34.167504 4.174033
2004-11-05 10:09:10 51°18.222 2°40.533 12.669679 3.990542 34.142149 4.039195
2004-11-05 10:10:14 51°18.28 2°40.632 12.669046 3.990859 34.154362 3.836939
2004-11-05 10:11:18 51°18.339 2°40.728 12.663008 3.991596 34.159995 3.735811
2004-11-05 10:12:18 51°18.394 2°40.823 12.668024 3.993072 34.173383 3.836939
2004-11-05 10:13:22 51°18.451 2°40.922 12.670312 3.991069 34.152132 3.904358
2004-11-05 10:14:30 51°18.511 2°41.03 12.671724 3.991913 34.1616 3.702101
2004-11-05 10:15:46 51°18.577 2°41.149 12.671822 3.99128 34.149902 3.80323
2004-11-05 10:16:48 51°18.634 2°41.17 12.66817 3.990226 34.145492 3.836939
2004-11-05 10:17:54 51°18.653 2°41.094 12.67523 3.984639 34.092144 4.207742
2004-11-05 10:18:53 51°18.605 2°41.048 12.693583 3.987169 34.100765 4.679674
2004-11-05 10:19:54 51°18.528 2°41.023 12.721809 3.986852 34.08646 4.443708
2004-11-05 10:20:53 51°18.45 2°40.981 12.696601 3.990542 34.126606 4.072905
2004-11-05 10:22:12 51°18.37 2°40.853 12.675279 3.993072 34.1557 4.34258
2004-11-05 10:23:54 51°18.267 2°40.654 12.666855 3.99128 34.152024 4.578546
2004-11-05 10:24:54 51°18.204 2°40.533 12.66106 3.991386 34.155859 4.578546
2004-11-05 10:25:54 51°18.138 2°40.419 12.665151 3.991596 34.157873 4.848221
2004-11-05 10:26:55 51°18.074 2°40.293 12.66257 3.992229 34.165328 4.544836
2004-11-05 10:27:56 51°18.01 2°40.168 12.661158 3.992861 34.171369 4.645965
2004-11-05 10:28:57 51°17.944 2°40.05 12.663154 3.991913 34.165845 4.645965
2004-11-05 10:29:56 51°17.88 2°39.938 12.664859 3.991596 34.162825 4.780802
2004-11-05 10:31:16 51°17.779 2°39.803 12.65658 3.990437 34.158116 4.780802
2004-11-05 10:32:55 51°17.651 2°39.627 12.639435 3.988434 34.14535 4.612255
2004-11-05 10:33:59 51°17.581 2°39.499 12.635294 3.988434 34.150303 4.409999
2004-11-05 10:35:18 51°17.505 2°39.337 12.632079 3.988329 34.151419 4.780802
2004-11-05 10:36:19 51°17.446 2°39.214 12.626038 3.986642 34.13884 4.612255
2004-11-05 10:37:36 51°17.356 2°39.073 12.619314 3.987064 34.150656 4.645965
2004-11-05 10:38:46 51°17.275 2°38.947 12.616 3.983269 34.111556 4.511127
2004-11-05 10:40:19 51°17.185 2°38.766 12.621165 3.987696 34.15033 4.780802
2004-11-05 10:41:31 51°17.121 2°38.627 12.654583 3.985588 34.131596 4.578546
2004-11-05 10:43:09 51°17.147 2°38.513 12.637828 3.988856 34.152917 4.91564
2004-11-05 10:44:10 51°17.172 2°38.574 12.64718 3.988118 34.141621 5.117896
2004-11-05 10:45:22 51°17.196 2°38.702 12.646596 3.985166 34.115545 5.084187
2004-11-05 10:46:26 51°17.226 2°38.804 12.637389 3.986431 34.136825 4.612255
2004-11-05 10:47:30 51°17.28 2°38.898 12.61985 3.984429 34.122637 4.679674
2004-11-05 10:48:46 51°17.338 2°39.034 12.623845 3.984112 34.122444 4.207742
2004-11-05 10:49:44 51°17.385 2°39.134 12.618388 3.98232 34.108853 4.106614
2004-11-05 10:50:46 51°17.44 2°39.234 12.622383 3.982742 34.11642 4.34258
2004-11-05 10:51:53 51°17.502 2°39.331 12.628328 3.983901 34.123259 4.511127
2004-11-05 10:52:57 51°17.564 2°39.416 12.636025 3.984218 34.119208 4.34258
2004-11-05 10:54:11 51°17.639 2°39.516 12.638607 3.984639 34.117579 4.409999
2004-11-05 10:55:54 51°17.738 2°39.683 12.640263 3.985483 34.122101 4.241452
2004-11-05 10:57:03 51°17.8 2°39.799 12.650784 3.986642 34.129644 4.376289
2004-11-05 10:58:01 51°17.85 2°39.894 12.649372 3.984955 34.109997 4.275161
2004-11-05 10:59:18 51°17.914 2°40.013 12.664323 3.989488 34.148346 4.477418
2004-11-05 11:00:22 51°17.973 2°40.109 12.654632 3.987696 34.131228 4.578546
2004-11-05 11:01:21 51°18.027 2°40.2 12.655996 3.987485 34.127094 4.511127
2004-11-05 11:02:26 51°18.086 2°40.301 12.655703 3.98622 34.114306 4.376289
2004-11-05 11:03:26 51°18.142 2°40.394 12.658187 3.987274 34.126494 4.477418
2004-11-05 11:04:26 51°18.196 2°40.49 12.663544 3.985588 34.104027 4.511127
2004-11-05 11:05:30 51°18.25 2°40.588 12.665005 3.990437 34.147506 4.477418
2004-11-05 11:06:42 51°18.312 2°40.695 12.668754 3.98485 34.095569 4.308871
2004-11-05 11:07:42 51°18.366 2°40.785 12.668998 3.986326 34.108248 4.106614
2004-11-05 11:08:42 51°18.421 2°40.872 12.659161 3.981793 34.06991 3.600973
2004-11-05 11:09:42 51°18.47 2°40.961 12.65322 3.980106 34.053101 3.297589
2004-11-05 11:10:41 51°18.517 2°41.049 12.665979 3.979474 34.051294 3.263879
2004-11-05 11:11:55 51°18.578 2°41.157 12.659015 3.974308 33.998461 3.095332
2004-11-05 11:13:09 51°18.643 2°41.229 12.664615 3.975257 34.001883 2.893076
2004-11-05 11:14:10 51°18.676 2°41.183 12.663301 3.978736 34.033675 3.095332
2004-11-05 11:15:10 51°18.657 2°41.113 12.673964 3.975362 33.996554 3.365007
2004-11-05 11:16:09 51°18.589 2°41.089 12.672893 3.977681 34.010939 3.432426
2004-11-05 11:17:14 51°18.509 2°41.012 12.711396 3.980527 33.987453 3.23017
2004-11-05 11:18:13 51°18.44 2°40.914 12.698012 3.977365 33.995258 3.162751
2004-11-05 11:19:13 51°18.374 2°40.802 12.663544 3.97863 34.022807 3.297589
2004-11-05 11:20:20 51°18.293 2°40.677 12.658187 3.976733 34.011039 3.095332
2004-11-05 11:21:27 51°18.211 2°40.544 12.657992 3.981476 34.059131 3.297589
2004-11-05 11:22:32 51°18.133 2°40.412 12.663739 3.982214 34.068997 3.634683
2004-11-05 11:23:35 51°18.058 2°40.284 12.677957 3.985482 34.091724 3.971777
2004-11-05 11:24:34 51°17.99 2°40.171 12.670848 3.987485 34.110844 4.713383
2004-11-05 11:25:36 51°17.921 2°40.048 12.667586 3.990015 34.135703 4.511127
2004-11-05 11:26:46 51°17.839 2°39.912 12.679417 3.988223 34.117182 4.443708
2004-11-05 11:27:43 51°17.774 2°39.799 12.66744 3.99012 34.128232 4.578546
2004-11-05 11:28:46 51°17.706 2°39.671 12.67114 3.990226 34.136303 4.34258
2004-11-05 11:29:48 51°17.639 2°39.544 12.67523 3.987696 34.110738 4.308871
2004-11-05 11:30:50 51°17.568 2°39.416 12.663544 3.986431 34.105723 4.578546
2004-11-05 11:31:58 51°17.489 2°39.28 12.655703 3.988961 34.134826 4.477418
2004-11-05 11:33:04 51°17.415 2°39.154 12.650005 3.987907 34.123346 4.814512
2004-11-05 11:34:04 51°17.345 2°39.042 12.659989 3.987064 34.123773 4.578546
2004-11-05 11:35:04 51°17.275 2°38.925 12.652781 3.987064 34.12448 4.679674
2004-11-05 11:36:04 51°17.204 2°38.814 12.647083 3.985482 34.110085 4.949349
2004-11-05 11:37:04 51°17.133 2°38.705 12.649421 3.985693 34.111392 4.645965
2004-11-05 11:38:20 51°17.041 2°38.563 12.643673 3.985904 34.119059 4.477418
2004-11-05 11:39:28 51°16.96 2°38.435 12.637146 3.986747 34.129236 4.544836
2004-11-05 11:40:40 51°16.881 2°38.312 12.640702 3.985904 34.126837 4.443708
2004-11-05 11:41:54 51°16.834 2°38.235 12.630179 3.984007 34.110122 4.275161
2004-11-05 11:43:00 51°16.807 2°38.196 12.626866 3.984956 34.124844 4.679674
2004-11-05 11:44:00 51°16.791 2°38.183 12.625014 3.98348 34.111449 4.578546
2004-11-05 11:45:06 51°16.776 2°38.183 12.619411 3.984007 34.121437 4.88193
2004-11-05 11:46:16 51°16.761 2°38.183 12.621263 3.983374 34.115392 5.117896
2004-11-05 11:47:16 51°16.746 2°38.181 12.625014 3.984534 34.125059 5.320153
2004-11-05 11:48:38 51°16.718 2°38.16 12.622286 3.984007 34.124267 5.151606
2004-11-05 11:49:38 51°16.698 2°38.095 12.623017 3.984745 34.125659 4.645965
2004-11-05 11:50:34 51°16.706 2°38.025 12.619167 3.984323 34.122337 4.679674
2004-11-05 11:51:36 51°16.741 2°38.017 12.61829 3.983902 34.124674 4.814512
2004-11-05 11:52:38 51°16.765 2°38.066 12.618826 3.983902 34.125382 4.91564
2004-11-05 11:53:46 51°16.792 2°38.112 12.627256 3.985272 34.134235 4.544836
2004-11-05 11:54:48 51°16.817 2°38.15 12.627597 3.984639 34.123237 4.645965
2004-11-05 11:55:48 51°16.839 2°38.186 12.628279 3.984007 34.1179 4.713383
2004-11-05 11:56:47 51°16.863 2°38.221 12.629546 3.984007 34.117193 4.679674
2004-11-05 11:57:54 51°16.889 2°38.267 12.633589 3.985377 34.12463 4.679674
2004-11-05 11:59:02 51°16.912 2°38.317 12.638169 3.985693 34.127652 4.713383
2004-11-05 12:00:26 51°16.941 2°38.38 12.642309 3.984955 34.119894 4.34258
2004-11-05 12:01:24 51°16.964 2°38.424 12.642553 3.985272 34.118673 5.050477
2004-11-05 12:02:40 51°16.992 2°38.481 12.645865 3.98601 34.122894 4.578546
2004-11-05 12:03:52 51°17.018 2°38.526 12.638558 3.984955 34.116358 4.747093
2004-11-05 12:04:52 51°17.041 2°38.56 12.637389 3.984745 34.118586 4.443708
2004-11-05 12:05:52 51°17.066 2°38.594 12.633346 3.98369 34.108514 4.511127
2004-11-05 12:06:54 51°17.091 2°38.629 12.634612 3.98348 34.110035 4.477418
2004-11-05 12:07:55 51°17.114 2°38.662 12.637584 3.983901 34.108408 4.376289
2004-11-05 12:08:54 51°17.137 2°38.696 12.640458 3.983796 34.109522 4.578546
2004-11-05 12:09:58 51°17.162 2°38.735 12.64002 3.982953 34.100051 4.275161
2004-11-05 12:11:12 51°17.189 2°38.779 12.643576 3.985061 34.114538 4.34258
2004-11-05 12:12:12 51°17.21 2°38.813 12.649713 3.984534 34.109503 4.511127
2004-11-05 12:13:14 51°17.232 2°38.851 12.64606 3.985693 34.115632 4.612255
2004-11-05 12:14:12 51°17.252 2°38.884 12.647229 3.985693 34.118459 4.477418
2004-11-05 12:15:34 51°17.28 2°38.925 12.652148 3.98622 34.119253 4.34258
2004-11-05 12:16:34 51°17.299 2°38.957 12.650882 3.986009 34.118653 4.241452
2004-11-05 12:17:34 51°17.318 2°38.989 12.655606 3.985904 34.112699 4.645965
2004-11-05 12:18:42 51°17.343 2°39.023 12.653853 3.985588 34.115332 4.814512
2004-11-05 12:19:46 51°17.365 2°39.06 12.655363 3.986326 34.116726 4.578546
2004-11-05 12:20:52 51°17.382 2°39.099 12.662765 3.987169 34.121246 4.578546
2004-11-05 12:21:54 51°17.401 2°39.135 12.662034 3.987169 34.117713 4.612255
2004-11-05 12:22:52 51°17.419 2°39.166 12.660622 3.98738 34.119726 4.949349
2004-11-05 12:23:54 51°17.441 2°39.198 12.662619 3.987169 34.117007 4.645965
2004-11-05 12:25:02 51°17.459 2°39.239 12.670264 3.987696 34.122746 4.612255
2004-11-05 12:26:06 51°17.479 2°39.273 12.664128 3.987485 34.118613 4.713383
2004-11-05 12:27:06 51°17.5 2°39.304 12.669679 3.987274 34.114481 4.679674
2004-11-05 12:28:06 51°17.52 2°39.335 12.668608 3.987169 34.110649 4.544836
2004-11-05 12:29:06 51°17.542 2°39.367 12.666466 3.98759 34.114675 4.443708
2004-11-05 12:30:06 51°17.561 2°39.402 12.667683 3.987169 34.114887 4.376289
2004-11-05 12:31:16 51°17.583 2°39.447 12.669972 3.986642 34.104911 4.511127
2004-11-05 12:32:30 51°17.606 2°39.497 12.666417 3.985798 34.097567 4.477418
2004-11-05 12:33:30 51°17.625 2°39.534 12.664859 3.985798 34.101097 4.34258
2004-11-05 12:34:40 51°17.649 2°39.576 12.661012 3.983585 34.083491 4.409999
2004-11-05 12:35:46 51°17.665 2°39.616 12.651369 3.982636 34.082197 4.039195
2004-11-05 12:36:58 51°17.684 2°39.659 12.65546 3.981582 34.074248 3.76952
2004-11-05 12:37:58 51°17.703 2°39.689 12.645086 3.981055 34.069921 4.039195
2004-11-05 12:39:04 51°17.727 2°39.718 12.644793 3.979895 34.065199 3.702101
2004-11-05 12:40:18 51°17.752 2°39.755 12.640604 3.979052 34.057145 3.600973
2004-11-05 12:41:30 51°17.772 2°39.796 12.64416 3.978525 34.051405 3.533554
2004-11-05 12:42:30 51°17.789 2°39.829 12.644014 3.978314 34.050803 3.533554
2004-11-05 12:43:34 51°17.809 2°39.862 12.638412 3.977576 34.047283 3.398717
2004-11-05 12:44:46 51°17.83 2°39.898 12.641286 3.977049 34.041544 3.499845
2004-11-05 12:45:50 51°17.849 2°39.933 12.646255 3.976522 34.037215 3.331298
2004-11-05 12:47:08 51°17.869 2°39.979 12.645719 3.9761 34.033893 3.365007
2004-11-05 12:48:16 51°17.888 2°40.021 12.638217 3.975152 34.023422 3.533554
2004-11-05 12:49:14 51°17.906 2°40.051 12.639533 3.975363 34.024026 3.263879
2004-11-05 12:50:36 51°17.931 2°40.098 12.642796 3.975363 34.024731 3.263879
2004-11-05 12:51:50 51°17.957 2°40.136 12.652051 3.974835 34.014763 3.331298
2004-11-05 12:52:58 51°17.981 2°40.167 12.644014 3.974835 34.014763 3.297589
2004-11-05 12:54:12 51°18.004 2°40.209 12.649177 3.974414 34.009328 3.19646
2004-11-05 12:55:22 51°18.026 2°40.251 12.649469 3.974203 34.003793 3.129042
2004-11-05 12:56:24 51°18.043 2°40.287 12.651077 3.973676 34.001579 3.027913
2004-11-05 12:57:28 51°18.062 2°40.32 12.647034 3.973043 34.001175 3.129042
2004-11-05 12:58:28 51°18.079 2°40.349 12.644745 3.972833 33.997753 3.027913
2004-11-05 12:59:26 51°18.094 2°40.374 12.642796 3.9722 33.989602 3.162751
2004-11-05 13:00:44 51°18.116 2°40.405 12.637974 3.971041 33.985573 2.859366
2004-11-05 13:01:48 51°18.135 2°40.431 12.641725 3.971041 33.986277 3.027913
2004-11-05 13:02:50 51°18.156 2°40.461 12.64153 3.971251 33.988994 2.926785
2004-11-05 13:04:31 51°18.197 2°40.524 12.639874 3.971251 33.986177 2.758238
2004-11-05 13:05:46 51°18.221 2°40.565 12.636317 3.970092 33.981443 2.690819
2004-11-05 13:06:58 51°18.245 2°40.606 12.639435 3.96967 33.973896 2.926785
2004-11-05 13:08:06 51°18.269 2°40.643 12.632176 3.969776 33.977719 2.724529
2004-11-05 13:09:10 51°18.288 2°40.679 12.625599 3.9683 33.968554 2.758238
2004-11-05 13:10:15 51°18.311 2°40.721 12.625989 3.967878 33.964527 2.555982
2004-11-05 13:11:23 51°18.337 2°40.76 12.617608 3.967457 33.966837 2.522272
2004-11-05 13:12:23 51°18.359 2°40.793 12.61985 3.96577 33.957768 2.589691
2004-11-05 13:13:19 51°18.378 2°40.828 12.604401 3.965243 33.956959 2.522272
2004-11-05 13:14:30 51°18.402 2°40.871 12.600843 3.9644 33.956649 2.555982
2004-11-05 13:15:53 51°18.429 2°40.917 12.577785 3.961132 33.938098 2.454853
2004-11-05 13:16:56 51°18.451 2°40.949 12.571885 3.959867 33.93305 2.454853
2004-11-05 13:17:56 51°18.47 2°40.979 12.571885 3.959551 33.931436 2.65711
2004-11-05 13:19:07 51°18.492 2°41.018 12.577931 3.95934 33.933647 2.522272
2004-11-05 13:20:27 51°18.518 2°41.061 12.582661 3.959551 33.928618 2.353725
2004-11-05 13:21:28 51°18.539 2°41.099 12.588365 3.960605 33.933764 2.454853
2004-11-05 13:22:35 51°18.564 2°41.148 12.602842 3.962713 33.944758 2.454853
2004-11-05 13:23:36 51°18.588 2°41.208 12.606838 3.963451 33.943358 2.218888
2004-11-05 13:24:49 51°18.632 2°41.226 12.614392 3.964505 33.949909 2.488563
2004-11-05 13:25:53 51°18.644 2°41.157 12.623455 3.966508 33.959888 2.522272
2004-11-05 13:26:54 51°18.606 2°41.102 12.636366 3.968827 33.968659 2.589691
2004-11-05 13:27:54 51°18.558 2°41.066 12.643722 3.969775 33.965048 2.724529
2004-11-05 13:28:59 51°18.516 2°41.021 12.627304 3.968721 33.962022 2.6234
2004-11-05 13:29:58 51°18.478 2°40.989 12.621994 3.966613 33.951743 2.488563
2004-11-05 13:31:24 51°18.427 2°40.942 12.609421 3.965032 33.944384 2.488563
2004-11-05 13:32:26 51°18.398 2°40.911 12.598942 3.963978 33.938538 2.454853
2004-11-05 13:33:25 51°18.373 2°40.878 12.588803 3.962397 33.938919 2.488563
2004-11-05 13:34:25 51°18.35 2°40.822 12.583538 3.96187 33.94022 2.488563
2004-11-05 13:35:44 51°18.318 2°40.736 12.581344 3.960605 33.929539 2.454853
2004-11-05 13:36:53 51°18.282 2°40.653 12.575688 3.960184 33.932551 2.6234
2004-11-05 13:37:53 51°18.244 2°40.586 12.57681 3.95934 33.925194 2.589691
2004-11-05 13:38:53 51°18.209 2°40.521 12.568959 3.95913 33.928813 2.522272
2004-11-05 13:39:53 51°18.175 2°40.458 12.569057 3.959446 33.931837 2.589691
2004-11-05 13:40:54 51°18.138 2°40.398 12.570764 3.959446 33.932541 2.421144
2004-11-05 13:41:53 51°18.104 2°40.344 12.573104 3.959762 33.934156 2.791947
2004-11-05 13:43:03 51°18.063 2°40.271 12.582709 3.960605 33.937286 2.555982
2004-11-05 13:44:03 51°18.024 2°40.212 12.590266 3.962503 33.947674 2.65711
2004-11-05 13:45:03 51°17.987 2°40.157 12.599235 3.96324 33.94909 2.65711
2004-11-05 13:46:12 51°17.943 2°40.095 12.608252 3.966086 33.963607 2.825657
2004-11-05 13:47:29 51°17.896 2°40.023 12.613027 3.966613 33.965825 2.724529
2004-11-05 13:48:29 51°17.866 2°39.968 12.610981 3.967562 33.971366 2.791947
2004-11-05 13:49:43 51°17.828 2°39.899 12.615172 3.967457 33.966837 2.893076
2004-11-05 13:50:45 51°17.796 2°39.841 12.620824 3.9683 33.974893 2.893076
2004-11-05 13:52:03 51°17.755 2°39.766 12.624722 3.969354 33.975101 2.960494
2004-11-05 13:53:14 51°17.712 2°39.699 12.620824 3.969459 33.976107 2.994204
2004-11-05 13:54:22 51°17.674 2°39.637 12.629594 3.969459 33.981037 3.129042
2004-11-05 13:55:22 51°17.645 2°39.577 12.625697 3.970092 33.98426 3.331298
2004-11-05 13:56:22 51°17.615 2°39.513 12.620142 3.970197 33.988085 3.19646
2004-11-05 13:57:22 51°17.585 2°39.454 12.621701 3.970303 33.989092 3.162751
2004-11-05 13:58:27 51°17.55 2°39.391 12.624576 3.971146 33.997852 3.533554
2004-11-05 13:59:41 51°17.507 2°39.319 12.62175 3.971252 33.998154 3.263879
2004-11-05 14:00:56 51°17.461 2°39.246 12.622188 3.971041 33.993321 3.331298
2004-11-05 14:01:55 51°17.424 2°39.187 12.625258 3.971673 34.000067 3.331298
2004-11-05 14:03:14 51°17.374 2°39.111 12.620532 3.972833 34.013258 3.331298
2004-11-05 14:04:37 51°17.325 2°39.031 12.616731 3.9722 34.009331 3.80323
2004-11-05 14:05:48 51°17.283 2°38.963 12.61332 3.972622 34.013359 3.432426
2004-11-05 14:06:55 51°17.251 2°38.897 12.618972 3.973044 34.015272 3.567264
2004-11-05 14:07:58 51°17.242 2°38.836 12.612394 3.972517 34.017994 3.76952
2004-11-05 14:09:01 51°17.254 2°38.8 12.611809 3.972938 34.022729 3.533554
2004-11-05 14:10:02 51°17.268 2°38.819 12.613027 3.972833 34.021721 3.600973
2004-11-05 14:11:00 51°17.266 2°38.874 12.616 3.973149 34.024038 3.432426
2004-11-05 14:12:24 51°17.217 2°38.946 12.617852 3.973044 34.024441 3.297589
2004-11-05 14:13:32 51°17.16 2°38.927 12.635684 3.972727 34.012956 3.668392
2004-11-05 14:14:32 51°17.128 2°38.875 12.610688 3.972622 34.019002 3.432426
2004-11-05 14:15:40 51°17.11 2°38.812 12.606984 3.972517 34.022933 3.567264
2004-11-05 14:16:46 51°17.113 2°38.762 12.607374 3.971884 34.021122 3.80323
2004-11-05 14:17:46 51°17.131 2°38.753 12.606253 3.972411 34.023337 3.432426
2004-11-05 14:19:14 51°17.124 2°38.769 12.607959 3.972728 34.024947 3.533554
2004-11-05 14:20:14 51°17.113 2°38.778 12.615708 3.9722 34.022733 3.600973
2004-11-05 14:21:20 51°17.1 2°38.787 12.622042 3.974098 34.024637 3.702101
2004-11-05 14:22:34 51°17.086 2°38.799 12.618875 3.972938 34.019202 3.466136
2004-11-05 14:24:02 51°17.068 2°38.81 12.611809 3.972095 34.021726 3.466136
2004-11-05 14:25:18 51°17.052 2°38.82 12.597968 3.971779 34.021526 3.567264
2004-11-05 14:26:31 51°17.036 2°38.829 12.595579 3.971041 34.023649 3.702101
2004-11-05 14:27:39 51°17.039 2°38.943 12.594799 3.97083 34.027282 3.567264
2004-11-05 14:29:10 51°16.875 2°39.241 12.603524 3.971568 34.011751 3.533554
2004-11-05 14:30:28 51°16.667 2°39.588 12.568325 3.968511 33.991002 3.365007
2004-11-05 14:31:34 51°16.488 2°39.883 12.520179 3.960711 33.94534 3.297589
2004-11-05 14:32:34 51°16.325 2°40.139 12.393967 3.948063 33.927995 3.162751
2004-11-05 14:33:42 51°16.138 2°40.433 12.387269 3.935203 33.871798 2.690819
2004-11-05 14:34:44 51°15.978 2°40.708 12.405309 3.932042 33.869024 2.690819
2004-11-05 14:35:56 51°15.795 2°41.044 12.322308 3.93162 33.873469 2.690819
2004-11-05 14:37:02 51°15.631 2°41.348 12.297638 3.927299 33.861677 2.791947
2004-11-05 14:38:16 51°15.485 2°41.725 12.278395 3.924242 33.861338 3.027913
2004-11-05 14:39:14 51°15.441 2°42.063 12.262086 3.923294 33.863559 3.297589
2004-11-05 14:40:41 51°15.444 2°42.578 12.251407 3.923083 33.855854 3.297589
2004-11-05 14:41:46 51°15.413 2°42.971 12.249251 3.924348 33.880806 3.76952
2004-11-05 14:42:58 51°15.393 2°43.407 12.263213 3.926772 33.904151 4.409999
2004-11-05 14:44:28 51°15.364 2°43.95 12.270511 3.932253 33.9484 4.477418
2004-11-05 14:45:29 51°15.343 2°44.321 12.277759 3.936681 33.979643 4.679674
2004-11-05 14:46:32 51°15.319 2°44.704 12.333661 3.946167 34.043902 4.848221
2004-11-05 14:47:34 51°15.298 2°45.081 12.351323 3.954494 34.104787 5.117896
2004-11-05 14:48:33 51°15.277 2°45.438 12.406188 3.962611 34.141481 5.320153
2004-11-05 14:49:34 51°15.255 2°45.809 12.396705 3.966511 34.154009 5.252734
2004-11-05 14:50:32 51°15.232 2°46.163 12.423392 3.969041 34.168333 5.623537
2004-11-05 14:51:39 51°15.221 2°46.567 12.394456 3.970727 34.183822 5.45499
2004-11-05 14:52:39 51°15.205 2°46.928 12.403207 3.973257 34.194571 5.556118
2004-11-05 14:53:38 51°15.193 2°47.277 12.381793 3.971044 34.20256 5.050477
2004-11-05 14:54:48 51°15.189 2°47.707 12.976045 3.509227 28.262214 5.151606
2004-11-05 14:55:52 51°15.17 2°48.103 12.868783 3.689305 30.62181 3.76952
2004-11-05 14:56:58 51°15.146 2°48.504 12.555548 3.564558 30.047129 4.713383
2004-11-05 14:58:00 51°15.123 2°48.879 12.402913 3.277937 27.492556 4.275161
2004-11-05 14:58:59 51°15.103 2°49.24 12.368052 2.953135 24.548914 0.027777
2004-11-05 15:00:12 51°15.073 2°49.686 12.333172 3.237815 27.185785 0.331161
2004-11-05 15:01:10 51°15.047 2°50.036 12.28246 2.82895 23.457411 -0.073352
2004-11-05 15:02:12 51°15.022 2°50.414 12.261204 3.644112 31.067142 2.151469
2004-11-05 15:03:12 51°14.996 2°50.773 12.233768 3.329335 28.138344 1.780665
2004-11-05 15:04:18 51°14.968 2°51.168 12.161744 3.357247 28.434039 1.881794
2004-11-05 15:05:26 51°14.944 2°51.579 12.085716 2.88441 24.076744 1.342443
2004-11-05 15:06:56 51°14.904 2°52.117 11.977983 3.435932 29.266246 0.634546
2004-11-05 15:08:00 51°14.855 2°52.494 11.867665 3.385899 28.893554 -0.241899
2004-11-05 15:09:00 51°14.816 2°52.784 11.827155 2.53461 21.049284 0.162614
2004-11-05 15:10:14 51°14.779 2°53.025 11.866679 3.143263 26.692397 -0.005933
2004-11-05 15:11:20 51°14.746 2°53.215 11.895593 1.580892 12.571098 -0.410446
2004-11-05 15:12:20 51°14.707 2°53.405 11.926169 3.098937 26.234352 -0.511574
2004-11-05 15:13:18 51°14.669 2°53.601 11.921788 2.158076 17.625676 -0.241899
2004-11-05 15:14:28 51°14.609 2°53.913 11.900222 2.003448 16.25068 -0.17448
2004-11-05 15:15:40 51°14.526 2°54.319 11.880966 2.517679 20.882318 1.039059
2004-11-05 15:16:46 51°14.453 2°54.693 11.876089 3.239189 27.564738 0.364871
2004-11-05 15:18:02 51°14.348 2°55.079 11.805165 2.869469 24.127241 0.39858
2004-11-05 15:19:00 51°14.236 2°55.307 11.772069 2.471201 20.501657 0.567127
2004-11-05 15:20:01 51°14.099 2°55.44 11.767332 3.050194 25.867342 0.769383
2004-11-05 15:21:06 51°13.958 2°55.541 11.792738 2.680603 22.428369 0.095195
2004-11-05 15:22:06 51°13.834 2°55.634 12.28623 0.743237 4.561071 -0.848668
2004-11-05 15:23:15 51°13.721 2°55.79 12.359933 0.105888 0.568332 -0.848668
2004-11-05 15:24:14 51°13.659 2°55.921 12.619021 0.002172 0.017757 -0.814958
2004-11-05 15:25:30 51°13.616 2°56.046 12.682582 0.00238 0.018584 -0.814958
2004-11-05 15:26:30 51°13.601 2°56.1 12.790572 0.002691 0.020023 -0.848668
2004-11-05 15:27:30 51°13.597 2°56.107 12.925661 0.002691 0.020014 -0.814958
2004-11-05 15:28:40 51°13.597 2°56.112 13.054529 0.002587 0.01951 -0.848668
2004-11-05 15:29:40 51°13.597 2°56.11 13.167012 0.003626 0.02455 -0.814958
2004-11-05 15:30:42 51°13.597 2°56.111 13.260921 0.076985 0.419159 -0.814958